createdAt,value
2019-05-06T00:01:25.908Z,73.28
2019-05-06T00:03:57.541Z,73.06
2019-05-06T00:06:29.221Z,72.96
2019-05-06T00:09:01.287Z,72.97
2019-05-06T00:11:34.803Z,73.10
2019-05-06T00:14:06.858Z,73.10
2019-05-06T00:16:39.846Z,73.35
2019-05-06T00:19:13.870Z,73.30
2019-05-06T00:21:48.268Z,73.44
2019-05-06T00:24:20.949Z,73.28
2019-05-06T00:26:57.758Z,73.33
2019-05-06T00:29:30.421Z,73.22
2019-05-06T00:32:04.298Z,73.05
2019-05-06T00:34:35.377Z,72.92
2019-05-06T00:37:07.342Z,72.72
2019-05-06T00:39:46.991Z,72.58
2019-05-06T00:42:34.383Z,72.62
2019-05-06T00:45:08.440Z,72.81
2019-05-06T00:47:40.075Z,73.02
2019-05-06T00:50:14.228Z,73.35
2019-05-06T00:52:46.466Z,73.63
2019-05-06T00:55:18.267Z,73.76
2019-05-06T00:57:50.308Z,73.71
2019-05-06T01:00:24.483Z,73.69
2019-05-06T01:02:56.376Z,73.56
2019-05-06T01:05:28.257Z,73.67
2019-05-06T01:08:00.533Z,73.81
2019-05-06T01:10:34.236Z,74.01
2019-05-06T01:13:07.841Z,74.08
2019-05-06T01:15:39.009Z,74.22
2019-05-06T01:18:10.522Z,74.56
2019-05-06T01:20:44.550Z,74.62
2019-05-06T01:23:15.686Z,74.73
2019-05-06T01:25:47.265Z,74.79
2019-05-06T01:28:19.211Z,75.11
2019-05-06T01:30:51.104Z,75.43
2019-05-06T01:33:24.120Z,75.69
2019-05-06T01:35:56.058Z,75.74
2019-05-06T01:38:29.351Z,75.88
2019-05-06T01:41:05.818Z,76.04
2019-05-06T01:43:39.253Z,76.28
2019-05-06T01:46:11.285Z,76.35
2019-05-06T01:48:49.578Z,76.29
2019-05-06T01:51:24.088Z,76.47
2019-05-06T01:53:55.884Z,76.54
2019-05-06T01:56:27.747Z,76.83
2019-05-06T01:58:59.285Z,76.84
2019-05-06T02:01:31.301Z,76.75
2019-05-06T02:04:04.537Z,76.70
2019-05-06T02:06:36.326Z,76.41
2019-05-06T02:09:13.661Z,76.55
2019-05-06T02:11:47.734Z,76.42
2019-05-06T02:14:18.251Z,76.21
2019-05-06T02:16:50.134Z,76.26
2019-05-06T02:19:24.089Z,76.10
2019-05-06T02:21:59.903Z,76.07
2019-05-06T02:24:36.069Z,76.15
2019-05-06T02:27:09.468Z,75.98
2019-05-06T02:29:43.885Z,75.82
2019-05-06T02:32:31.517Z,75.76
2019-05-06T02:35:19.767Z,75.75
2019-05-06T02:37:54.751Z,75.86
2019-05-06T02:40:27.488Z,75.90
2019-05-06T02:42:59.039Z,76.04
2019-05-06T02:45:33.479Z,76.16
2019-05-06T02:48:13.815Z,76.16
2019-05-06T02:50:48.345Z,76.31
2019-05-06T02:53:23.655Z,76.36
2019-05-06T02:55:55.881Z,76.40
2019-05-06T02:58:27.515Z,76.37
2019-05-06T03:00:59.343Z,76.19
2019-05-06T03:03:33.749Z,76.05
2019-05-06T03:06:04.646Z,75.79
2019-05-06T03:08:36.412Z,75.59
2019-05-06T03:11:09.536Z,75.68
2019-05-06T03:13:43.778Z,75.52
2019-05-06T03:16:14.894Z,75.46
2019-05-06T03:18:46.746Z,75.64
2019-05-06T03:21:25.982Z,75.87
2019-05-06T03:23:59.596Z,75.93
2019-05-06T03:26:33.126Z,75.94
2019-05-06T03:29:05.051Z,76.00
2019-05-06T03:31:37.898Z,76.08
2019-05-06T03:34:35.988Z,76.07
2019-05-06T03:36:48.275Z,75.96
2019-05-06T03:39:16.442Z,75.77
2019-05-06T03:41:48.336Z,75.43
2019-05-06T03:44:23.933Z,75.05
2019-05-06T03:47:13.935Z,74.42
2019-05-06T03:49:54.102Z,73.68
2019-05-06T03:52:25.198Z,73.27
2019-05-06T03:54:58.529Z,73.28
2019-05-06T03:57:33.453Z,73.15
2019-05-06T04:00:05.212Z,73.39
2019-05-06T04:02:39.708Z,73.40
2019-05-06T04:05:13.309Z,73.65
2019-05-06T04:07:47.194Z,74.17
2019-05-06T04:10:22.662Z,74.02
2019-05-06T04:12:54.532Z,74.26
2019-05-06T04:15:28.965Z,74.23
2019-05-06T04:18:08.604Z,74.21
2019-05-06T04:20:53.313Z,74.18
2019-05-06T04:23:32.813Z,74.22
2019-05-06T04:26:24.018Z,74.03
2019-05-06T04:28:56.032Z,73.45
2019-05-06T04:31:28.297Z,73.69
2019-05-06T04:34:09.975Z,73.70
2019-05-06T04:36:33.828Z,73.87
2019-05-06T04:39:06.826Z,72.95
2019-05-06T04:41:38.569Z,72.92
2019-05-06T04:44:13.575Z,72.54
2019-05-06T04:46:44.494Z,72.31
2019-05-06T04:49:17.053Z,72.38
2019-05-06T04:51:49.098Z,72.62
2019-05-06T04:54:26.148Z,72.53
2019-05-06T04:56:54.797Z,72.56
2019-05-06T04:59:26.575Z,72.41
2019-05-06T05:01:58.291Z,72.16
2019-05-06T05:04:32.772Z,72.00
2019-05-06T05:07:03.974Z,71.82
2019-05-06T05:09:35.824Z,71.56
2019-05-06T05:12:24.400Z,71.29
2019-05-06T05:15:12.731Z,70.61
2019-05-06T05:17:52.681Z,69.88
2019-05-06T05:20:36.849Z,69.17
2019-05-06T05:22:58.889Z,69.29
2019-05-06T05:25:30.555Z,69.48
2019-05-06T05:28:02.388Z,69.13
2019-05-06T05:30:34.508Z,68.57
2019-05-06T05:33:07.361Z,67.97
2019-05-06T05:35:39.023Z,67.61
2019-05-06T05:38:13.069Z,66.93
2019-05-06T05:40:45.162Z,66.23
2019-05-06T05:43:18.389Z,66.40
2019-05-06T05:45:52.302Z,65.88
2019-05-06T05:48:29.373Z,66.05
2019-05-06T05:51:03.318Z,65.84
2019-05-06T05:53:35.159Z,64.95
2019-05-06T05:56:06.975Z,64.69
2019-05-06T05:58:38.579Z,64.50
2019-05-06T06:01:12.704Z,63.99
2019-05-06T11:48:57.736Z,38.79
2019-05-06T11:51:32.940Z,38.82
2019-05-06T11:54:16.455Z,38.16
2019-05-06T11:56:48.772Z,39.22
2019-05-06T11:59:13.026Z,37.67
2019-05-06T12:01:46.381Z,37.18
2019-05-06T12:04:18.539Z,37.35
2019-05-06T12:06:52.437Z,37.37
2019-05-06T12:09:23.591Z,36.76
2019-05-06T12:11:55.775Z,36.96
2019-05-06T12:14:27.416Z,36.85
2019-05-06T12:16:59.378Z,35.87
2019-05-06T12:19:32.402Z,35.35
2019-05-06T12:22:04.517Z,35.14
2019-05-06T12:24:36.065Z,36.03
2019-05-06T12:27:07.935Z,36.00
2019-05-06T12:29:42.677Z,36.77
2019-05-06T12:32:17.589Z,36.71
2019-05-06T12:34:49.243Z,37.32
2019-05-06T12:37:22.448Z,37.07
2019-05-06T12:39:55.649Z,37.19
2019-05-06T12:42:28.942Z,36.40
2019-05-06T12:45:03.524Z,36.84
2019-05-06T12:47:36.341Z,36.43
2019-05-06T12:50:07.581Z,36.40
2019-05-06T12:52:39.156Z,35.68
2019-05-06T12:55:18.249Z,35.76
2019-05-06T12:57:44.505Z,35.71
2019-05-06T13:00:16.997Z,35.25
2019-05-06T13:02:48.992Z,35.68
2019-05-06T13:05:20.889Z,36.12
2019-05-06T13:07:53.792Z,36.64
2019-05-06T13:10:26.056Z,37.10
2019-05-06T13:12:59.351Z,37.58
2019-05-06T13:15:31.313Z,37.41
2019-05-06T13:18:07.111Z,37.63
2019-05-06T13:20:37.575Z,38.04
2019-05-06T13:23:27.162Z,37.66
2019-05-06T13:26:02.064Z,37.62
2019-05-06T13:28:35.721Z,37.50
2019-05-06T13:31:17.192Z,37.41
2019-05-06T13:33:49.908Z,37.58
2019-05-06T13:36:22.790Z,37.08
2019-05-06T13:39:09.813Z,36.39
2019-05-06T13:41:27.638Z,36.58
2019-05-06T13:44:13.371Z,36.07
2019-05-06T13:46:47.041Z,35.97
2019-05-06T13:49:28.694Z,35.80
2019-05-06T13:52:07.615Z,35.78
2019-05-06T13:54:41.954Z,36.04
2019-05-06T13:57:12.651Z,35.50
2019-05-06T13:59:44.472Z,35.56
2019-05-06T14:02:34.030Z,35.90
2019-05-06T14:05:07.477Z,35.90
2019-05-06T14:07:39.150Z,37.20
2019-05-06T14:10:13.192Z,37.20
2019-05-06T14:12:43.697Z,37.48
2019-05-06T14:15:16.510Z,38.26
2019-05-06T14:17:48.108Z,38.50
2019-05-06T14:20:21.988Z,38.76
2019-05-06T14:22:52.953Z,38.98
2019-05-06T14:25:33.163Z,38.77
2019-05-06T14:28:09.286Z,38.17
2019-05-06T14:30:44.115Z,37.91
2019-05-06T14:33:17.304Z,38.01
2019-05-06T14:35:49.161Z,38.63
2019-05-06T14:38:24.333Z,38.36
2019-05-06T14:41:14.193Z,37.98
2019-05-06T14:43:46.355Z,37.12
2019-05-06T14:46:18.418Z,37.26
2019-05-06T14:48:50.485Z,37.37
2019-05-06T14:51:22.754Z,37.41
2019-05-06T14:53:54.920Z,37.39
2019-05-06T14:56:28.213Z,37.24
2019-05-06T14:59:06.728Z,36.31
2019-05-06T15:01:39.582Z,35.55
2019-05-06T15:04:12.464Z,35.50
2019-05-06T15:06:44.462Z,35.34
2019-05-06T15:09:16.313Z,35.16
2019-05-06T15:11:48.030Z,34.77
2019-05-06T15:14:22.533Z,34.82
2019-05-06T15:16:53.216Z,34.14
2019-05-06T15:19:24.993Z,33.84
2019-05-06T15:44:13.291Z,34.06
2019-05-06T15:46:45.480Z,33.50
2019-05-06T15:49:17.530Z,32.75
2019-05-06T15:51:49.289Z,32.80
2019-05-06T15:54:22.688Z,33.30
2019-05-06T15:56:54.539Z,33.82
2019-05-06T15:59:26.405Z,34.24
2019-05-06T16:01:58.387Z,33.95
2019-05-06T16:04:32.263Z,34.30
2019-05-06T16:07:02.973Z,33.88
2019-05-06T16:09:34.577Z,34.56
2019-05-06T16:12:06.642Z,35.05
2019-05-06T16:14:38.402Z,35.79
2019-05-06T16:17:12.268Z,37.44
2019-05-06T16:19:42.964Z,38.59
2019-05-06T16:22:14.600Z,39.84
2019-05-06T16:24:48.202Z,41.40
2019-05-06T16:27:20.265Z,42.95
2019-05-06T16:29:53.031Z,43.87
2019-05-06T16:32:25.004Z,44.78
2019-05-06T16:34:57.627Z,45.56
2019-05-06T16:37:29.646Z,46.35
2019-05-06T16:40:02.791Z,47.03
2019-05-06T16:42:36.321Z,48.10
2019-05-06T16:45:08.792Z,49.32
2019-05-06T16:47:44.386Z,49.96
2019-05-06T16:50:16.712Z,51.00
2019-05-06T16:52:48.488Z,52.00
2019-05-06T16:55:25.464Z,52.76
2019-05-06T16:57:59.035Z,53.32
2019-05-06T17:00:32.776Z,53.98
2019-05-06T17:03:14.887Z,54.81
2019-05-06T17:06:04.656Z,55.69
2019-05-06T17:08:36.820Z,55.57
2019-05-06T17:11:08.572Z,54.71
2019-05-06T17:13:42.563Z,54.33
2019-05-06T17:16:14.045Z,54.63
2019-05-06T17:18:45.885Z,54.72
2019-05-06T17:21:17.863Z,54.45
2019-05-06T17:23:52.071Z,54.51
2019-05-06T17:26:23.138Z,54.76
2019-05-06T17:29:02.851Z,55.99
2019-05-06T17:31:42.453Z,57.43
2019-05-06T17:34:20.102Z,58.53
2019-05-06T17:36:53.711Z,59.60
2019-05-06T17:39:25.640Z,59.63
2019-05-06T17:41:57.510Z,59.18
2019-05-06T17:44:29.222Z,60.07
2019-05-06T17:47:05.735Z,61.20
2019-05-06T17:49:39.151Z,61.75
2019-05-06T17:52:12.547Z,62.53
2019-05-06T17:54:44.386Z,58.58
2019-05-06T17:57:16.353Z,57.57
2019-05-06T17:59:48.559Z,57.46
2019-05-06T18:02:22.817Z,57.98
2019-05-06T18:04:55.007Z,58.65
2019-05-06T18:07:26.834Z,59.20
2019-05-06T18:09:58.762Z,60.68
2019-05-06T18:12:32.737Z,61.58
2019-05-06T18:15:04.595Z,62.44
2019-05-06T18:17:36.352Z,62.82
2019-05-06T18:20:12.555Z,63.35
2019-05-06T18:22:43.776Z,63.36
2019-05-06T18:25:15.741Z,63.87
2019-05-06T18:27:47.380Z,63.36
2019-05-06T18:30:24.879Z,62.55
2019-05-06T18:32:52.755Z,61.93
2019-05-06T18:35:24.925Z,61.04
2019-05-06T18:37:56.579Z,60.62
2019-05-06T18:40:28.437Z,60.80
2019-05-06T18:43:01.993Z,61.19
2019-05-06T18:45:34.929Z,60.81
2019-05-06T18:48:06.766Z,59.87
2019-05-06T18:50:39.564Z,59.54
2019-05-06T18:53:13.353Z,59.62
2019-05-06T18:55:44.719Z,59.92
2019-05-06T18:58:16.564Z,59.94
2019-05-06T19:00:48.446Z,59.99
2019-05-06T19:03:22.502Z,59.99
2019-05-06T19:05:54.013Z,60.42
2019-05-06T19:08:27.297Z,61.10
2019-05-06T19:10:59.114Z,62.10
2019-05-06T19:13:33.419Z,63.47
2019-05-06T19:16:05.215Z,64.89
2019-05-06T19:18:38.656Z,66.03
2019-05-06T19:21:10.445Z,66.60
2019-05-06T19:23:42.759Z,66.86
2019-05-06T19:26:14.624Z,67.15
2019-05-06T19:28:46.790Z,67.28
2019-05-06T19:31:18.340Z,67.36
2019-05-06T19:33:52.622Z,67.33
2019-05-06T19:36:24.620Z,66.61
2019-05-06T19:38:56.383Z,66.26
2019-05-06T19:41:28.262Z,66.60
2019-05-06T19:44:02.114Z,67.43
2019-05-06T19:46:35.136Z,68.04
2019-05-06T19:49:06.790Z,68.77
2019-05-06T19:51:39.026Z,69.03
2019-05-06T19:54:12.659Z,69.25
2019-05-06T19:56:44.112Z,69.42
2019-05-06T19:59:16.020Z,69.53
2019-05-06T20:01:48.130Z,69.60
2019-05-06T20:04:20.089Z,69.38
2019-05-06T20:07:08.097Z,69.73
2019-05-06T20:09:42.693Z,68.95
2019-05-06T20:12:23.041Z,68.60
2019-05-06T20:14:56.360Z,68.50
2019-05-06T20:17:28.621Z,67.90
2019-05-06T20:20:00.243Z,67.71
2019-05-06T20:22:32.619Z,67.71
2019-05-06T20:25:04.989Z,68.73
2019-05-06T20:27:37.773Z,68.69
2019-05-06T20:30:10.760Z,68.68
2019-05-06T20:32:43.031Z,68.70
2019-05-06T20:35:14.769Z,68.94
2019-05-06T20:37:46.328Z,69.14
2019-05-06T20:40:18.513Z,69.16
2019-05-06T20:42:50.333Z,69.35
2019-05-06T20:45:22.496Z,69.49
2019-05-06T20:47:54.308Z,69.76
2019-05-06T20:50:26.132Z,69.48
2019-05-06T20:52:59.385Z,68.82
2019-05-06T20:55:34.965Z,68.21
2019-05-06T20:58:05.551Z,67.54
2019-05-06T21:00:37.200Z,66.29
2019-05-06T21:03:09.448Z,65.93
2019-05-06T21:05:43.482Z,65.75
2019-05-06T21:08:14.601Z,66.18
2019-05-06T21:10:49.523Z,66.50
2019-05-06T21:13:29.535Z,66.66
2019-05-06T21:15:54.364Z,66.46
2019-05-06T21:18:26.343Z,66.16
2019-05-06T21:20:58.433Z,66.77
2019-05-06T21:23:31.981Z,67.37
2019-05-06T21:26:03.470Z,67.67
2019-05-06T21:28:35.322Z,68.31
2019-05-06T21:31:07.384Z,68.78
2019-05-06T21:33:39.451Z,69.34
2019-05-06T21:36:12.409Z,69.67
2019-05-06T21:38:44.130Z,69.80
2019-05-06T21:41:17.901Z,70.05
2019-05-06T21:43:50.306Z,70.38
2019-05-06T21:46:22.237Z,70.65
2019-05-06T21:48:53.973Z,70.81
2019-05-06T21:51:26.161Z,70.72
2019-05-06T21:53:58.230Z,70.83
2019-05-06T21:56:31.937Z,71.00
2019-05-06T21:59:03.363Z,70.76
2019-05-06T22:01:35.633Z,71.06
2019-05-06T22:04:07.256Z,71.54
2019-05-06T22:06:39.054Z,71.68
2019-05-06T22:09:11.740Z,71.51
2019-05-06T22:11:43.603Z,71.46
2019-05-06T22:14:15.466Z,71.31
2019-05-06T22:16:47.325Z,71.08
2019-05-06T22:19:19.181Z,71.53
2019-05-06T22:22:07.938Z,71.67
2019-05-06T22:24:42.724Z,71.53
2019-05-06T22:27:14.913Z,71.49
2019-05-06T22:29:46.695Z,71.67
2019-05-06T22:32:18.351Z,71.54
2019-05-06T22:34:53.518Z,71.64
2019-05-06T22:37:25.658Z,71.98
2019-05-06T22:39:57.703Z,72.25
2019-05-06T22:42:29.421Z,72.31
2019-05-06T22:45:01.960Z,72.28
2019-05-06T22:47:33.916Z,72.33
2019-05-06T22:50:07.163Z,72.39
2019-05-06T22:52:38.861Z,72.50
2019-05-06T22:55:12.971Z,72.67
2019-05-06T22:57:44.848Z,72.98
2019-05-06T23:00:22.467Z,73.15
2019-05-06T23:02:55.560Z,73.19
2019-05-06T23:05:27.054Z,73.18
2019-05-06T23:07:58.607Z,73.03
2019-05-06T23:10:30.490Z,73.11
2019-05-06T23:13:03.120Z,73.30
2019-05-06T23:15:34.810Z,73.42
2019-05-06T23:18:06.582Z,73.55
2019-05-06T23:20:38.234Z,73.73
2019-05-06T23:23:12.762Z,73.92
2019-05-06T23:25:44.925Z,73.97
2019-05-06T23:28:16.970Z,73.94
2019-05-06T23:30:48.831Z,73.88
2019-05-06T23:33:22.821Z,73.04
2019-05-06T23:35:53.920Z,72.31
2019-05-06T23:39:02.014Z,72.08
2019-05-06T23:42:12.275Z,72.45
2019-05-06T23:45:22.749Z,72.92
2019-05-06T23:48:30.542Z,73.27
2019-05-06T23:51:39.041Z,73.51
2019-05-06T23:54:47.380Z,73.67
2019-05-06T23:57:18.110Z,74.03
2019-05-06T23:59:51.862Z,75.19
